createdAt,value
2023-03-16T00:01:34.636Z,6.80
2023-03-16T00:04:38.348Z,7.93
2023-03-16T00:07:43.144Z,6.73
2023-03-16T00:10:46.964Z,8.13
2023-03-16T00:13:49.836Z,7.57
2023-03-16T00:16:53.364Z,6.23
2023-03-16T00:19:57.838Z,7.13
2023-03-16T00:23:02.721Z,5.93
2023-03-16T00:26:07.829Z,6.20
2023-03-16T00:29:11.947Z,5.80
2023-03-16T00:32:17.482Z,7.03
2023-03-16T00:35:21.606Z,7.47
2023-03-16T00:38:25.803Z,7.27
2023-03-16T00:41:28.661Z,7.33
2023-03-16T00:44:32.109Z,7.10
2023-03-16T00:47:35.982Z,8.53
2023-03-16T00:50:38.986Z,8.00
2023-03-16T00:53:44.702Z,7.37
2023-03-16T00:56:47.585Z,9.27
2023-03-16T00:59:50.911Z,7.60
2023-03-16T01:02:53.786Z,6.70
2023-03-16T01:05:59.819Z,7.10
2023-03-16T01:09:05.461Z,5.57
2023-03-16T01:12:10.728Z,7.40
2023-03-16T01:15:13.730Z,6.00
2023-03-16T01:18:16.588Z,6.37
2023-03-16T01:21:21.687Z,6.40
2023-03-16T01:24:25.887Z,5.87
2023-03-16T01:27:28.731Z,6.50
2023-03-16T01:30:31.636Z,6.13
2023-03-16T01:33:35.075Z,5.60
2023-03-16T01:36:37.930Z,6.77
2023-03-16T01:39:42.116Z,6.73
2023-03-16T01:42:49.006Z,6.30
2023-03-16T01:46:18.246Z,7.50
2023-03-16T01:49:25.188Z,7.03
2023-03-16T01:52:33.297Z,7.90
2023-03-16T01:55:37.616Z,7.10
2023-03-16T01:58:43.151Z,6.03
2023-03-16T02:01:47.765Z,6.40
2023-03-16T02:04:54.451Z,7.10
2023-03-16T02:07:58.940Z,8.07
2023-03-16T02:11:04.874Z,7.20
2023-03-16T02:14:10.989Z,7.60
2023-03-16T02:17:15.527Z,8.23
2023-03-16T02:20:30.688Z,8.03
2023-03-16T02:23:33.628Z,9.00
2023-03-16T02:26:44.810Z,8.60
2023-03-16T02:30:03.315Z,7.73
2023-03-16T02:33:06.441Z,10.50
2023-03-16T02:36:10.211Z,7.57
2023-03-16T02:39:13.061Z,7.53
2023-03-16T02:42:18.898Z,7.60
2023-03-16T02:45:25.672Z,7.50
2023-03-16T02:48:32.738Z,10.73
2023-03-16T02:51:35.837Z,7.97
2023-03-16T02:54:38.845Z,7.73
2023-03-16T02:57:41.708Z,7.43
2023-03-16T03:00:46.321Z,9.10
2023-03-16T03:03:49.189Z,8.17
2023-03-16T03:06:52.376Z,8.93
2023-03-16T03:09:55.206Z,8.63
2023-03-16T03:12:58.426Z,7.53
2023-03-16T03:16:02.751Z,10.37
2023-03-16T03:19:05.697Z,9.97
2023-03-16T03:22:09.044Z,11.47
2023-03-16T03:25:12.278Z,11.70
2023-03-16T03:28:15.506Z,10.53
2023-03-16T03:31:22.004Z,10.60
2023-03-16T03:34:25.038Z,11.63
2023-03-16T03:37:28.823Z,12.83
2023-03-16T03:40:31.681Z,12.13
2023-03-16T03:43:34.943Z,11.57
2023-03-16T03:46:39.564Z,12.17
2023-03-16T03:49:42.496Z,13.10
2023-03-16T03:52:45.382Z,12.23
2023-03-16T03:55:49.887Z,12.00
2023-03-16T03:58:52.814Z,14.17
2023-03-16T04:01:57.354Z,14.80
2023-03-16T04:05:00.310Z,13.90
2023-03-16T04:08:03.181Z,15.80
2023-03-16T04:11:06.313Z,15.60
2023-03-16T04:14:09.496Z,14.40
2023-03-16T04:17:14.030Z,14.53
2023-03-16T04:20:19.481Z,14.50
2023-03-16T04:23:24.952Z,14.40
2023-03-16T04:26:27.879Z,14.90
2023-03-16T04:29:32.020Z,14.17
2023-03-16T04:32:36.304Z,14.63
2023-03-16T04:35:39.270Z,14.13
2023-03-16T04:38:42.270Z,12.83
2023-03-16T04:41:45.155Z,14.77
2023-03-16T04:44:48.114Z,14.10
2023-03-16T04:47:52.336Z,13.37
2023-03-16T04:50:55.238Z,15.37
2023-03-16T04:53:58.544Z,14.80
2023-03-16T04:57:03.591Z,14.27
2023-03-16T05:00:11.690Z,17.47
2023-03-16T05:03:16.224Z,15.87
2023-03-16T05:06:19.092Z,15.87
2023-03-16T05:09:22.019Z,14.93
2023-03-16T05:12:24.982Z,16.60
2023-03-16T05:15:28.292Z,16.83
2023-03-16T05:18:33.169Z,16.00
2023-03-16T05:21:37.720Z,16.97
2023-03-16T05:24:40.621Z,17.37
2023-03-16T05:27:43.796Z,16.97
2023-03-16T05:30:46.857Z,20.03
2023-03-16T05:33:51.087Z,17.20
2023-03-16T05:36:54.142Z,17.67
2023-03-16T05:39:57.676Z,18.60
2023-03-16T05:43:00.970Z,16.53
2023-03-16T05:46:03.946Z,16.00
2023-03-16T05:49:08.350Z,17.93
2023-03-16T05:52:11.298Z,16.90
2023-03-16T05:55:15.650Z,17.53
2023-03-16T05:58:18.493Z,17.10
2023-03-16T06:01:22.035Z,15.80
2023-03-16T06:04:26.976Z,16.90
2023-03-16T06:07:29.864Z,17.67
2023-03-16T06:10:32.752Z,16.43
2023-03-16T06:13:35.971Z,15.73
2023-03-16T06:16:38.875Z,16.03
2023-03-16T06:19:43.171Z,14.83
2023-03-16T06:22:46.356Z,12.33
2023-03-16T06:25:49.756Z,14.83
2023-03-16T06:28:52.593Z,19.60
2023-03-16T06:31:55.519Z,14.97
2023-03-16T06:35:02.222Z,15.57
2023-03-16T06:38:05.098Z,14.77
2023-03-16T06:41:07.994Z,13.77
2023-03-16T06:44:11.534Z,14.83
2023-03-16T06:47:14.862Z,14.90
2023-03-16T06:50:19.391Z,14.10
2023-03-16T06:53:22.719Z,15.10
2023-03-16T06:56:27.865Z,13.37
2023-03-16T06:59:31.366Z,13.57
2023-03-16T07:02:35.768Z,13.57
2023-03-16T07:05:40.140Z,13.23
2023-03-16T07:08:43.425Z,12.20
2023-03-16T07:11:46.311Z,13.00
2023-03-16T07:14:52.397Z,13.13
2023-03-16T07:17:56.614Z,11.67
2023-03-16T07:21:00.826Z,12.20
2023-03-16T07:24:03.674Z,11.17
2023-03-16T07:27:06.681Z,11.17
2023-03-16T07:30:12.128Z,11.27
2023-03-16T07:33:15.448Z,10.57
2023-03-16T07:36:20.607Z,11.83
2023-03-16T07:39:23.897Z,13.13
2023-03-16T07:42:26.779Z,11.70
2023-03-16T07:45:29.931Z,12.27
2023-03-16T07:48:33.246Z,12.80
2023-03-16T07:51:37.492Z,13.17
2023-03-16T07:54:41.136Z,13.93
2023-03-16T07:57:48.071Z,12.93
2023-03-16T08:00:51.168Z,12.23
2023-03-16T08:03:54.564Z,12.10
2023-03-16T08:07:00.358Z,12.30
2023-03-16T08:10:03.364Z,12.43
2023-03-16T08:13:06.359Z,11.93
2023-03-16T08:16:10.640Z,11.93
2023-03-16T08:19:13.714Z,10.73
2023-03-16T08:22:17.984Z,15.27
2023-03-16T08:25:21.025Z,13.03
2023-03-16T08:28:25.954Z,11.90
2023-03-16T08:31:30.308Z,13.20
2023-03-16T08:34:33.340Z,11.90
2023-03-16T08:37:37.623Z,12.17
2023-03-16T08:40:46.907Z,12.10
2023-03-16T08:43:52.274Z,10.70
2023-03-16T08:46:55.278Z,11.80
2023-03-16T08:49:58.759Z,11.17
2023-03-16T08:53:02.973Z,10.87
2023-03-16T08:56:07.748Z,12.07
2023-03-16T08:59:27.051Z,11.00
2023-03-16T09:02:32.640Z,10.97
2023-03-16T09:05:35.802Z,11.07
2023-03-16T09:08:40.676Z,10.83
2023-03-16T09:11:43.848Z,10.57
2023-03-16T09:14:46.728Z,9.57
2023-03-16T09:17:50.516Z,9.70
2023-03-16T09:20:53.492Z,8.77
2023-03-16T09:23:57.722Z,8.57
2023-03-16T09:27:00.589Z,9.07
2023-03-16T09:30:04.964Z,8.47
2023-03-16T09:33:08.015Z,9.33
2023-03-16T09:36:12.332Z,10.57
2023-03-16T09:39:16.538Z,11.27
2023-03-16T09:42:26.341Z,8.03
2023-03-16T09:45:36.956Z,7.50
2023-03-16T09:48:42.309Z,6.87
2023-03-16T09:51:49.726Z,8.43
2023-03-16T09:54:59.788Z,9.33
2023-03-16T09:58:06.858Z,8.80
2023-03-16T10:01:18.973Z,8.17
2023-03-16T10:04:42.594Z,8.73
2023-03-16T10:07:55.068Z,8.03
2023-03-16T10:11:25.618Z,8.07
2023-03-16T10:14:34.689Z,8.20
2023-03-16T10:17:43.238Z,7.20
2023-03-16T10:20:48.027Z,6.37
2023-03-16T10:23:52.122Z,7.17
2023-03-16T10:27:00.519Z,8.23
2023-03-16T10:30:07.259Z,6.73
2023-03-16T10:33:19.704Z,8.20
2023-03-16T10:36:28.601Z,8.07
2023-03-16T10:39:37.278Z,6.83
2023-03-16T10:42:41.567Z,6.73
2023-03-16T10:45:44.753Z,7.10
2023-03-16T10:48:54.678Z,6.90
2023-03-16T10:52:01.243Z,7.73
2023-03-16T10:55:11.872Z,7.63
2023-03-16T10:58:26.207Z,8.03
2023-03-16T11:01:30.607Z,8.03
2023-03-16T11:04:34.666Z,7.70
2023-03-16T11:07:39.203Z,7.87
2023-03-16T11:10:55.747Z,7.87
2023-03-16T11:14:02.631Z,6.57
2023-03-16T11:17:12.240Z,6.10
2023-03-16T11:20:18.293Z,6.33
2023-03-16T11:23:29.365Z,6.17
2023-03-16T11:26:36.029Z,5.77
2023-03-16T11:29:51.229Z,7.03
2023-03-16T11:32:54.813Z,8.00
2023-03-16T11:36:11.516Z,6.93
2023-03-16T11:39:32.806Z,6.70
2023-03-16T11:42:40.056Z,6.30
2023-03-16T11:45:52.853Z,5.80
2023-03-16T11:49:10.139Z,7.20
2023-03-16T11:52:19.618Z,6.90
2023-03-16T11:55:32.402Z,7.83
2023-03-16T11:58:50.413Z,7.47
2023-03-16T12:02:07.284Z,6.23
2023-03-16T12:05:37.251Z,6.87
2023-03-16T12:08:57.495Z,6.67
2023-03-16T12:12:05.085Z,6.00
2023-03-16T12:15:21.406Z,6.40
2023-03-16T12:18:31.091Z,6.23
2023-03-16T12:21:38.654Z,7.17
2023-03-16T12:24:46.056Z,5.77
2023-03-16T12:27:53.890Z,6.27
2023-03-16T12:31:09.466Z,5.80
2023-03-16T12:34:26.736Z,5.07
2023-03-16T12:37:37.283Z,4.07
2023-03-16T12:40:47.570Z,7.27
2023-03-16T12:44:03.895Z,6.47
2023-03-16T12:47:16.170Z,5.27
2023-03-16T12:50:22.374Z,3.97
2023-03-16T12:53:30.440Z,4.30
2023-03-16T12:56:36.149Z,4.97
2023-03-16T12:59:42.830Z,4.43
2023-03-16T13:02:51.666Z,4.17
2023-03-16T13:05:59.508Z,3.17
2023-03-16T13:09:04.823Z,3.30
2023-03-16T13:12:07.915Z,4.17
2023-03-16T13:15:29.574Z,3.23
2023-03-16T13:18:38.632Z,3.43
2023-03-16T13:21:43.747Z,4.10
2023-03-16T13:24:53.053Z,4.27
2023-03-16T13:27:58.255Z,3.80
2023-03-16T13:31:02.717Z,4.57
2023-03-16T13:34:08.609Z,4.50
2023-03-16T13:37:15.466Z,3.33
2023-03-16T13:40:21.800Z,3.03
2023-03-16T13:43:28.732Z,3.27
2023-03-16T13:46:31.945Z,3.40
2023-03-16T13:49:35.189Z,2.90
2023-03-16T13:52:39.541Z,5.33
2023-03-16T13:55:45.340Z,3.50
2023-03-16T13:58:51.220Z,2.63
2023-03-16T14:01:59.706Z,2.73
2023-03-16T14:05:11.652Z,2.63
2023-03-16T14:08:21.777Z,3.70
2023-03-16T14:11:24.708Z,4.77
2023-03-16T14:14:30.793Z,2.77
2023-03-16T14:17:33.942Z,2.13
2023-03-16T14:20:41.295Z,3.13
2023-03-16T14:23:47.780Z,2.20
2023-03-16T14:26:50.931Z,2.20
2023-03-16T14:29:58.991Z,2.13
2023-03-16T14:33:04.411Z,1.73
2023-03-16T14:36:14.646Z,2.30
2023-03-16T14:39:22.802Z,1.40
2023-03-16T14:42:30.072Z,2.20
2023-03-16T14:45:35.827Z,1.90
2023-03-16T14:48:39.306Z,1.53
2023-03-16T14:51:42.298Z,3.27
2023-03-16T14:54:46.852Z,2.43
2023-03-16T14:57:51.301Z,1.80
2023-03-16T15:00:55.008Z,1.47
2023-03-16T15:03:58.012Z,1.90
2023-03-16T15:07:03.890Z,1.77
2023-03-16T15:10:17.912Z,3.53
2023-03-16T15:13:34.884Z,2.03
2023-03-16T15:16:37.940Z,1.97
2023-03-16T15:19:41.141Z,2.80
2023-03-16T15:22:46.074Z,1.87
2023-03-16T15:25:52.646Z,3.37
2023-03-16T15:28:56.000Z,1.60
2023-03-16T15:31:58.838Z,1.47
2023-03-16T15:35:01.687Z,1.97
2023-03-16T15:38:08.684Z,3.13
2023-03-16T15:41:13.234Z,1.70
2023-03-16T15:44:16.314Z,3.50
2023-03-16T15:47:19.315Z,1.83
2023-03-16T15:50:24.696Z,2.30
2023-03-16T15:53:33.620Z,2.43
2023-03-16T15:56:53.341Z,1.93
2023-03-16T15:59:57.348Z,2.27
2023-03-16T16:03:01.308Z,1.87
2023-03-16T16:06:04.387Z,4.47
2023-03-16T16:09:07.361Z,2.20
2023-03-16T16:12:14.373Z,2.20
2023-03-16T16:15:21.693Z,2.57
2023-03-16T16:18:28.500Z,2.93
2023-03-16T16:21:32.628Z,3.03
2023-03-16T16:24:35.536Z,1.90
2023-03-16T16:27:39.896Z,2.63
2023-03-16T16:30:43.129Z,2.30
2023-03-16T16:33:45.967Z,1.90
2023-03-16T16:36:49.404Z,3.90
2023-03-16T16:39:52.609Z,3.30
2023-03-16T16:42:57.021Z,3.00
2023-03-16T16:46:00.777Z,3.03
2023-03-16T16:49:08.894Z,2.70
2023-03-16T16:52:15.211Z,4.00
2023-03-16T16:55:18.889Z,2.90
2023-03-16T16:58:24.925Z,2.33
2023-03-16T17:01:29.776Z,3.30
2023-03-16T17:04:32.799Z,4.10
2023-03-16T17:07:36.180Z,4.17
2023-03-16T17:10:39.751Z,2.77
2023-03-16T17:13:46.202Z,3.73
2023-03-16T17:16:50.549Z,3.87
2023-03-16T17:19:53.496Z,2.93
2023-03-16T17:22:57.840Z,3.67
2023-03-16T17:26:04.446Z,3.77
2023-03-16T17:29:17.435Z,1.97
2023-03-16T17:32:23.212Z,2.83
2023-03-16T17:35:26.285Z,2.67
2023-03-16T17:38:29.469Z,2.40
2023-03-16T17:41:33.136Z,2.40
2023-03-16T17:44:41.891Z,2.87
2023-03-16T17:47:44.788Z,3.13
2023-03-16T17:50:49.584Z,3.40
2023-03-16T17:53:53.888Z,3.27
2023-03-16T17:56:57.059Z,3.90
2023-03-16T18:00:02.642Z,2.50
2023-03-16T18:03:11.759Z,3.37
2023-03-16T18:06:20.278Z,4.20
2023-03-16T18:09:23.232Z,3.20
2023-03-16T18:12:26.362Z,2.90
2023-03-16T18:15:33.868Z,2.20
2023-03-16T18:18:40.030Z,3.37
2023-03-16T18:21:43.794Z,2.40
2023-03-16T18:24:48.446Z,3.87
2023-03-16T18:27:51.317Z,2.67
2023-03-16T18:30:57.404Z,6.43
2023-03-16T18:34:02.524Z,3.53
2023-03-16T18:37:06.246Z,2.73
2023-03-16T18:40:13.320Z,3.10
2023-03-16T18:43:18.158Z,3.77
2023-03-16T18:46:27.919Z,4.57
2023-03-16T18:49:34.634Z,4.77
2023-03-16T18:52:39.212Z,6.10
2023-03-16T18:55:44.954Z,6.63
2023-03-16T18:58:48.251Z,5.97
2023-03-16T19:01:53.984Z,4.00
2023-03-16T19:04:58.488Z,3.40
2023-03-16T19:08:01.793Z,3.43
2023-03-16T19:11:06.171Z,2.70
2023-03-16T19:14:16.389Z,6.87
2023-03-16T19:17:20.618Z,4.97
2023-03-16T19:20:25.912Z,4.47
2023-03-16T19:23:32.932Z,5.53
2023-03-16T19:26:37.180Z,5.10
2023-03-16T19:29:40.888Z,6.13
2023-03-16T19:32:45.215Z,3.80
2023-03-16T19:35:51.893Z,3.83
2023-03-16T19:38:55.619Z,4.00
2023-03-16T19:41:59.872Z,4.97
2023-03-16T19:45:03.215Z,4.87
2023-03-16T19:48:14.070Z,3.60
2023-03-16T19:51:18.600Z,4.60
2023-03-16T19:54:23.741Z,4.47
2023-03-16T19:57:26.874Z,4.70
2023-03-16T20:00:31.029Z,3.93
2023-03-16T20:03:37.430Z,4.77
2023-03-16T20:06:40.552Z,7.03
2023-03-16T20:09:43.509Z,4.27
2023-03-16T20:12:47.216Z,4.73
2023-03-16T20:15:50.080Z,5.00
2023-03-16T20:18:56.697Z,4.60
2023-03-16T20:21:59.746Z,3.67
2023-03-16T20:25:05.233Z,3.90
2023-03-16T20:28:14.863Z,4.57
2023-03-16T20:31:20.781Z,5.57
2023-03-16T20:34:27.449Z,4.80
2023-03-16T20:37:32.239Z,4.43
2023-03-16T20:40:35.116Z,4.30
2023-03-16T20:43:38.708Z,5.87
2023-03-16T20:46:41.811Z,4.87
2023-03-16T20:49:46.229Z,4.23
2023-03-16T20:52:49.233Z,5.10
2023-03-16T20:55:54.502Z,4.57
2023-03-16T20:58:58.999Z,5.30
2023-03-16T21:02:03.178Z,5.80
2023-03-16T21:05:09.675Z,6.43
2023-03-16T21:08:12.735Z,4.83
2023-03-16T21:11:22.522Z,4.80
2023-03-16T21:14:26.345Z,4.77
2023-03-16T21:17:31.894Z,6.43
2023-03-16T21:20:37.052Z,4.70
2023-03-16T21:23:39.905Z,4.47
2023-03-16T21:26:44.832Z,10.20
2023-03-16T21:29:48.241Z,5.67
2023-03-16T21:32:52.201Z,6.17
2023-03-16T21:35:56.610Z,8.07
2023-03-16T21:38:59.462Z,4.80
2023-03-16T21:42:02.313Z,4.93
2023-03-16T21:45:06.038Z,4.93
2023-03-16T21:48:21.413Z,4.80
2023-03-16T21:51:31.152Z,4.37
2023-03-16T21:54:34.019Z,5.07
2023-03-16T21:57:36.829Z,5.33
2023-03-16T22:00:39.957Z,4.93
2023-03-16T22:03:50.833Z,5.13
2023-03-16T22:06:55.362Z,5.00
2023-03-16T22:09:58.270Z,7.70
2023-03-16T22:13:02.183Z,5.60
2023-03-16T22:16:14.542Z,4.57
2023-03-16T22:19:18.114Z,4.33
2023-03-16T22:22:22.554Z,4.87
2023-03-16T22:25:26.574Z,5.27
2023-03-16T22:28:29.954Z,5.70
2023-03-16T22:31:35.651Z,7.03
2023-03-16T22:34:43.712Z,5.53
2023-03-16T22:37:48.280Z,5.23
2023-03-16T22:40:52.252Z,6.17
2023-03-16T22:43:55.256Z,5.40
2023-03-16T22:46:58.084Z,6.23
2023-03-16T22:50:01.286Z,7.00
2023-03-16T22:53:08.140Z,5.97
2023-03-16T22:56:11.204Z,5.70
2023-03-16T22:59:16.906Z,5.40
2023-03-16T23:02:25.206Z,6.53
2023-03-16T23:05:30.292Z,5.90
2023-03-16T23:08:34.730Z,5.70
2023-03-16T23:11:39.712Z,6.70
2023-03-16T23:14:43.302Z,6.93
2023-03-16T23:17:46.335Z,6.60
2023-03-16T23:20:50.170Z,7.13
2023-03-16T23:24:03.473Z,5.97
2023-03-16T23:27:15.541Z,5.83
2023-03-16T23:30:22.548Z,7.67
2023-03-16T23:33:25.496Z,6.80
2023-03-16T23:36:28.433Z,5.40
2023-03-16T23:39:32.611Z,5.87
2023-03-16T23:42:35.685Z,5.67
2023-03-16T23:45:41.748Z,6.00
2023-03-16T23:48:46.292Z,5.53
2023-03-16T23:51:49.416Z,6.03
2023-03-16T23:54:53.596Z,5.60
2023-03-16T23:57:56.494Z,5.37
